createdAt,value
2018-02-27T22:08:16.232Z,52.53
2018-02-27T22:09:15.917Z,52.34
2018-02-27T22:11:14.943Z,52.15
2018-02-27T22:12:14.946Z,52.15
2018-02-27T22:14:09.330Z,52.53
2018-02-27T22:15:09.268Z,52.44
2018-02-27T22:17:03.618Z,52.25
2018-02-27T22:18:03.599Z,52.25
2018-02-27T22:19:58.564Z,52.15
2018-02-27T22:20:57.932Z,52.53
2018-02-27T22:22:52.285Z,52.25
2018-02-27T22:23:52.369Z,52.25
2018-02-27T22:25:47.631Z,51.97
2018-02-27T22:26:46.631Z,52.34
2018-02-27T22:28:41.064Z,52.34
2018-02-27T22:29:40.993Z,52.34
2018-02-27T22:31:36.037Z,52.34
2018-02-27T22:32:35.318Z,52.25
2018-02-27T22:34:29.790Z,52.06
2018-02-27T22:35:29.694Z,52.53
2018-02-27T22:37:24.328Z,52.44
2018-02-27T22:38:24.054Z,52.44
2018-02-27T22:40:18.371Z,52.62
2018-02-27T22:41:18.359Z,52.34
2018-02-27T22:43:12.893Z,53.10
2018-02-27T22:44:12.701Z,53.00
2018-02-27T22:46:07.048Z,52.91
2018-02-27T22:47:07.037Z,52.81
2018-02-27T22:49:01.454Z,52.91
2018-02-27T22:50:01.376Z,53.19
2018-02-27T22:51:55.809Z,53.10
2018-02-27T22:52:55.701Z,53.57
2018-02-27T22:54:50.130Z,53.85
2018-02-27T22:55:50.036Z,54.04
2018-02-27T22:57:44.435Z,53.76
2018-02-27T22:58:44.377Z,53.76
2018-02-27T23:00:38.734Z,53.76
2018-02-27T23:01:38.723Z,54.04
2018-02-27T23:03:33.324Z,53.66
2018-02-27T23:04:33.123Z,53.76
2018-02-27T23:06:27.410Z,53.76
2018-02-27T23:07:27.467Z,53.95
2018-02-27T23:09:21.836Z,53.76
2018-02-27T23:10:21.735Z,53.85
2018-02-27T23:12:16.175Z,53.76
2018-02-27T23:13:16.052Z,54.04
2018-02-27T23:15:10.448Z,53.95
2018-02-27T23:16:10.423Z,54.42
2018-02-27T23:18:05.304Z,54.51
2018-02-27T23:19:04.747Z,54.70
2018-02-27T23:21:03.923Z,54.70
2018-02-27T23:22:03.785Z,54.86
2018-02-27T23:23:03.758Z,55.05
2018-02-27T23:24:03.741Z,54.96
2018-02-27T23:25:03.726Z,55.71
2018-02-27T23:26:03.712Z,55.52
2018-02-27T23:27:03.695Z,55.62
2018-02-27T23:28:03.678Z,55.62
2018-02-27T23:29:03.662Z,55.62
2018-02-27T23:30:03.648Z,55.43
2018-02-27T23:31:03.635Z,55.62
2018-02-27T23:32:03.617Z,55.24
2018-02-27T23:33:03.601Z,55.52
2018-02-27T23:34:03.586Z,55.62
2018-02-27T23:35:03.571Z,56.27
2018-02-27T23:36:03.557Z,56.27
2018-02-27T23:37:03.539Z,56.27
2018-02-27T23:38:03.524Z,56.27
2018-02-27T23:39:03.507Z,56.18
2018-02-27T23:40:03.492Z,55.90
2018-02-27T23:41:03.477Z,56.09
2018-02-27T23:42:03.674Z,56.09
2018-02-27T23:43:03.474Z,55.90
2018-02-27T23:44:03.516Z,55.99
2018-02-27T23:45:03.422Z,55.62
2018-02-27T23:46:03.395Z,55.90
2018-02-27T23:47:03.379Z,55.90
2018-02-27T23:48:03.368Z,55.71
2018-02-27T23:49:03.350Z,56.09
2018-02-27T23:50:03.340Z,56.18
2018-02-27T23:51:03.338Z,56.09
2018-02-27T23:52:03.301Z,56.18
2018-02-27T23:53:03.298Z,55.99
2018-02-27T23:54:03.273Z,56.56
2018-02-27T23:55:03.253Z,56.75
2018-02-27T23:56:03.243Z,56.46
2018-02-27T23:57:03.224Z,56.75
2018-02-27T23:58:03.205Z,56.75
2018-02-27T23:59:03.189Z,56.75
